Time;durP1;ratioP1;P1;durP2;ratioP2;P2;SDS_P1;SDS_P2;PMS_P1;PMS_P2;Temp;Humidity;BMP_temperature;BMP_pressure;BME280_temperature;BME280_humidity;BME280_pressure;Samples;Min_cycle;Max_cycle;Signal;HPM_P1;HPM_P2
2022/09/03 00:00:12;;;;;;;1.83;0.90;;;20.30;57.30;;;;;;5028483;28;20099;-79
2022/09/03 00:02:44;;;;;;;1.80;0.93;;;20.30;57.40;;;;;;5027233;28;20496;-79
2022/09/03 00:05:15;;;;;;;1.52;0.90;;;20.30;57.30;;;;;;5028742;28;20025;-79
2022/09/03 00:08:18;;;;;;;2.20;0.90;;;20.30;57.20;;;;;;5027208;28;20022;-80
2022/09/03 00:11:01;;;;;;;1.95;0.80;;;20.30;57.30;;;;;;5017257;28;20072;-80
2022/09/03 00:13:36;;;;;;;1.58;0.90;;;20.30;57.10;;;;;;5028316;28;20033;-80
2022/09/03 00:16:09;;;;;;;1.58;0.90;;;20.30;57.00;;;;;;5028675;28;20047;-80
2022/09/03 00:18:40;;;;;;;1.85;1.00;;;20.30;56.80;;;;;;5026985;28;20025;-80
2022/09/03 00:21:21;;;;;;;3.03;0.80;;;20.30;56.80;;;;;;5027906;28;20053;-80
2022/09/03 00:23:49;;;;;;;2.45;0.90;;;20.30;56.80;;;;;;5027478;28;20500;-81
2022/09/03 00:26:26;;;;;;;2.83;0.90;;;20.20;56.80;;;;;;5028230;28;20033;-80
2022/09/03 00:29:13;;;;;;;2.55;0.90;;;20.20;56.80;;;;;;5026770;28;20029;-79
2022/09/03 00:31:47;;;;;;;2.13;0.80;;;20.20;56.80;;;;;;5027072;28;20122;-79
2022/09/03 00:34:22;;;;;;;1.98;0.90;;;20.20;56.60;;;;;;5028489;28;20483;-80
2022/09/03 00:36:48;;;;;;;2.55;0.82;;;20.20;56.70;;;;;;5027025;28;20021;-80
2022/09/03 00:39:17;;;;;;;1.75;0.70;;;20.20;56.70;;;;;;5027729;28;20104;-80
2022/09/03 00:42:06;;;;;;;1.60;0.80;;;20.20;56.80;;;;;;5043500;28;20026;-80
2022/09/03 00:44:47;;;;;;;0.95;0.63;;;20.20;56.80;;;;;;5026810;28;20120;-80
2022/09/03 00:47:22;;;;;;;1.38;0.80;;;20.20;57.00;;;;;;5043453;28;20503;-80
2022/09/03 00:49:59;;;;;;;3.00;1.00;;;20.20;56.70;;;;;;5026531;28;20548;-79
2022/09/03 00:52:40;;;;;;;1.42;0.80;;;20.20;56.90;;;;;;5027970;28;20029;-80
2022/09/03 00:55:13;;;;;;;1.85;0.80;;;20.20;57.20;;;;;;5043278;28;20069;-80
2022/09/03 00:58:03;;;;;;;1.63;0.88;;;20.20;57.70;;;;;;5026318;28;20060;-80
2022/09/03 01:00:29;;;;;;;1.75;1.00;;;20.20;58.10;;;;;;5026423;28;20025;-80
2022/09/03 01:03:27;;;;;;;1.65;0.75;;;20.30;57.90;;;;;;5026398;28;20438;-80
2022/09/03 01:06:10;;;;;;;1.42;0.70;;;20.30;57.40;;;;;;5043049;28;20087;-80
2022/09/03 01:08:56;;;;;;;2.35;0.80;;;20.30;57.10;;;;;;5026283;28;20021;-80
2022/09/03 01:11:28;;;;;;;1.65;0.77;;;20.30;57.50;;;;;;5027433;28;20059;-79
2022/09/03 01:14:06;;;;;;;1.02;0.80;;;20.30;57.40;;;;;;5042889;28;20116;-80
2022/09/03 01:16:47;;;;;;;1.13;0.70;;;20.30;57.50;;;;;;5042933;28;20033;-81
2022/09/03 01:19:43;;;;;;;1.50;0.90;;;20.30;57.50;;;;;;5027304;28;20059;-81
2022/09/03 01:22:38;;;;;;;1.83;0.82;;;20.30;57.90;;;;;;5026263;28;20040;-80
2022/09/03 01:25:30;;;;;;;1.63;0.80;;;20.30;57.50;;;;;;5025953;28;20059;-80
2022/09/03 01:28:09;;;;;;;2.13;0.80;;;20.30;57.70;;;;;;5042497;28;20029;-80
2022/09/03 01:30:47;;;;;;;1.10;0.88;;;20.30;57.80;;;;;;5025740;28;20018;-80
2022/09/03 01:33:30;;;;;;;1.33;0.77;;;20.30;57.80;;;;;;5029244;28;20021;-80
2022/09/03 01:36:26;;;;;;;2.05;0.90;;;20.30;57.70;;;;;;5030335;28;20039;-79
2022/09/03 01:39:00;;;;;;;1.73;1.15;;;20.20;58.80;;;;;;5029728;28;20033;-80
2022/09/03 01:44:52;;;;;;;2.90;1.05;;;20.20;58.50;;;;;;5031641;28;20091;-79
2022/09/03 01:47:32;;;;;;;2.00;0.80;;;20.20;58.30;;;;;;5031162;28;20025;-80
2022/09/03 01:50:32;;;;;;;1.00;0.70;;;20.30;58.40;;;;;;5029594;28;20079;-80
2022/09/03 01:53:07;;;;;;;3.50;0.82;;;20.30;57.90;;;;;;5010593;28;20041;-80
2022/09/03 01:55:56;;;;;;;2.42;0.90;;;20.30;57.90;;;;;;5029896;28;20562;-80
2022/09/03 01:58:48;;;;;;;1.23;0.70;;;20.30;57.60;;;;;;5030628;28;20029;-79
2022/09/03 02:01:23;;;;;;;1.27;0.70;;;20.30;57.60;;;;;;5030768;28;20030;-80
2022/09/03 02:03:50;;;;;;;2.22;0.90;;;20.20;57.80;;;;;;5030779;28;20029;-80
2022/09/03 02:06:19;;;;;;;1.65;0.90;;;20.20;58.00;;;;;;5030787;28;20026;-80
2022/09/03 02:08:45;;;;;;;2.78;0.90;;;20.20;57.70;;;;;;5030538;28;20088;-80
2022/09/03 02:11:11;;;;;;;1.50;0.80;;;20.20;57.80;;;;;;5030570;28;20377;-80
2022/09/03 02:13:53;;;;;;;2.42;1.00;;;20.20;58.10;;;;;;5030453;28;20029;-81
2022/09/03 02:16:23;;;;;;;2.13;0.90;;;20.20;57.90;;;;;;5028748;28;20040;-80
2022/09/03 02:18:58;;;;;;;2.08;0.90;;;20.20;58.10;;;;;;5029254;28;20582;-80
2022/09/03 02:21:31;;;;;;;2.38;0.93;;;20.10;58.20;;;;;;5029977;28;20033;-79
2022/09/03 02:23:56;;;;;;;1.58;0.90;;;20.10;57.70;;;;;;5029231;28;20496;-80
2022/09/03 02:26:23;;;;;;;2.13;1.00;;;20.10;57.50;;;;;;5028938;28;20072;-80
2022/09/03 02:28:50;;;;;;;2.60;0.90;;;20.10;58.40;;;;;;5028049;28;20026;-80
2022/09/03 02:31:16;;;;;;;1.77;0.80;;;20.20;59.10;;;;;;5029342;28;20032;-80
2022/09/03 02:33:45;;;;;;;1.77;0.82;;;20.20;58.80;;;;;;5025957;28;20775;-79
2022/09/03 02:36:13;;;;;;;1.83;0.85;;;20.20;58.80;;;;;;5023008;28;20033;-80
2022/09/03 02:38:40;;;;;;;2.63;0.90;;;20.20;58.30;;;;;;5028788;28;20029;-80
2022/09/03 02:41:06;;;;;;;1.60;0.80;;;20.20;58.40;;;;;;5028643;28;20106;-79
2022/09/03 02:43:48;;;;;;;1.67;0.75;;;20.20;58.50;;;;;;5028600;28;20503;-79
2022/09/03 02:46:25;;;;;;;2.17;0.90;;;20.20;58.00;;;;;;5028109;28;20029;-80
2022/09/03 02:48:51;;;;;;;1.95;1.10;;;20.20;57.90;;;;;;5028194;28;20399;-80
2022/09/03 02:51:17;;;;;;;2.13;0.93;;;20.10;57.70;;;;;;5028611;28;20024;-79
2022/09/03 02:53:42;;;;;;;1.00;0.80;;;20.10;57.90;;;;;;5028487;28;20029;-80
2022/09/03 02:56:08;;;;;;;2.20;0.80;;;20.10;58.00;;;;;;5028733;28;20030;-79
2022/09/03 02:58:33;;;;;;;2.60;0.90;;;20.10;57.70;;;;;;5028271;28;20116;-79
2022/09/03 03:00:59;;;;;;;2.58;0.90;;;20.10;58.90;;;;;;5029793;28;20822;-79
2022/09/03 03:03:25;;;;;;;1.98;1.00;;;20.10;58.70;;;;;;5028338;28;20025;-79
2022/09/03 03:05:54;;;;;;;2.28;0.95;;;20.10;58.60;;;;;;5029727;28;20029;-80
2022/09/03 03:08:20;;;;;;;1.67;1.00;;;20.00;58.30;;;;;;5044922;28;20022;-80
2022/09/03 03:10:48;;;;;;;1.48;0.82;;;20.00;58.30;;;;;;5029236;28;20048;-79
2022/09/03 03:13:14;;;;;;;2.80;1.00;;;20.00;59.20;;;;;;5028135;28;20760;-81
2022/09/03 03:15:39;;;;;;;1.50;0.88;;;20.00;59.20;;;;;;5028088;28;20037;-80
2022/09/03 03:18:06;;;;;;;0.95;0.80;;;20.00;59.40;;;;;;5029555;28;20033;-80
2022/09/03 03:20:32;;;;;;;1.33;0.85;;;20.00;59.70;;;;;;5027914;28;20025;-80
2022/09/03 03:23:00;;;;;;;2.15;1.00;;;20.00;59.90;;;;;;5027974;28;20040;-79
2022/09/03 03:25:25;;;;;;;1.73;0.80;;;20.00;59.20;;;;;;5044817;28;20124;-80
2022/09/03 03:27:55;;;;;;;1.85;1.08;;;20.10;58.80;;;;;;5028215;28;20183;-79
2022/09/03 03:30:22;;;;;;;2.20;0.90;;;20.10;58.80;;;;;;5028819;28;20121;-80
2022/09/03 03:32:47;;;;;;;1.48;0.77;;;20.10;58.40;;;;;;5029206;28;20101;-80
2022/09/03 03:35:13;;;;;;;1.83;0.90;;;20.10;58.20;;;;;;5027721;28;20571;-80
2022/09/03 03:37:38;;;;;;;3.20;0.98;;;20.10;57.90;;;;;;5029295;28;20026;-80
2022/09/03 03:40:05;;;;;;;2.03;0.90;;;20.10;57.90;;;;;;5027312;28;20041;-80
2022/09/03 03:42:33;;;;;;;1.50;0.85;;;20.00;58.20;;;;;;5027703;28;20068;-80
2022/09/03 03:45:01;;;;;;;1.27;0.80;;;20.00;58.30;;;;;;5027390;28;20033;-79
2022/09/03 03:47:32;;;;;;;4.50;1.10;;;20.00;58.70;;;;;;5027686;28;20037;-81
2022/09/03 03:49:58;;;;;;;;;;;20.00;58.20;;;;;;5029336;28;20037;-80
2022/09/03 03:52:25;;;;;;;2.05;0.95;;;20.00;58.50;;;;;;5028778;28;19909;-80
2022/09/03 03:54:51;;;;;;;1.42;0.95;;;20.00;59.00;;;;;;5028484;28;20025;-79
2022/09/03 03:57:20;;;;;;;1.73;0.90;;;19.90;59.10;;;;;;5027726;28;20086;-80
2022/09/03 03:59:46;;;;;;;1.85;0.77;;;19.90;57.80;;;;;;5027113;28;20480;-79
2022/09/03 04:02:13;;;;;;;1.90;0.90;;;19.90;58.70;;;;;;5031007;28;20037;-80
2022/09/03 04:04:38;;;;;;;2.45;1.00;;;19.90;58.90;;;;;;5046901;28;20029;-81
2022/09/03 04:07:04;;;;;;;1.35;0.70;;;19.90;58.70;;;;;;5030636;28;20500;-80
2022/09/03 04:09:29;;;;;;;1.60;0.90;;;19.80;59.70;;;;;;5029613;28;20107;-80
2022/09/03 04:11:58;;;;;;;2.55;0.90;;;19.90;59.90;;;;;;5030089;28;20021;-80
2022/09/03 04:14:24;;;;;;;1.15;0.80;;;19.90;59.50;;;;;;5029978;28;20053;-80
2022/09/03 04:16:50;;;;;;;2.38;1.05;;;19.90;59.10;;;;;;5029122;28;20052;-79
2022/09/03 04:19:16;;;;;;;1.92;0.90;;;19.90;58.80;;;;;;5028351;28;20029;-80
2022/09/03 04:21:42;;;;;;;1.65;0.70;;;19.90;58.60;;;;;;5028392;28;20031;-80
2022/09/03 04:24:08;;;;;;;1.48;0.82;;;19.90;58.40;;;;;;5027198;28;20017;-80
2022/09/03 04:26:34;;;;;;;1.00;0.77;;;19.90;58.00;;;;;;5028396;28;20606;-80
2022/09/03 04:29:03;;;;;;;3.00;1.10;;;19.90;58.00;;;;;;5028129;28;20021;-80
2022/09/03 04:31:30;;;;;;;1.60;1.00;;;19.80;58.20;;;;;;5027419;28;20540;-80
2022/09/03 04:33:55;;;;;;;2.28;1.02;;;19.80;58.40;;;;;;5025190;28;20460;-80
2022/09/03 04:36:24;;;;;;;2.22;0.90;;;19.80;58.50;;;;;;5032643;28;20033;-81
2022/09/03 04:38:53;;;;;;;3.55;1.10;;;19.80;59.00;;;;;;5031489;28;20039;-81
2022/09/03 04:41:24;;;;;;;2.33;1.00;;;19.80;58.20;;;;;;5027967;28;20017;-79
2022/09/03 04:43:51;;;;;;;;;;;19.80;59.20;;;;;;5032806;28;20028;-80
2022/09/03 04:46:17;;;;;;;1.73;0.80;;;19.80;58.10;;;;;;5030065;28;19981;-81
2022/09/03 04:48:46;;;;;;;2.92;0.90;;;19.80;58.80;;;;;;5029017;28;20025;-80
2022/09/03 04:51:13;;;;;;;2.45;1.00;;;19.80;58.80;;;;;;5032074;28;20495;-80
2022/09/03 04:53:41;;;;;;;1.10;0.85;;;19.80;58.60;;;;;;5048199;28;20472;-80
2022/09/03 04:56:22;;;;;;;2.17;0.90;;;19.80;58.30;;;;;;5031364;28;20021;-81
2022/09/03 04:58:52;;;;;;;1.33;0.90;;;19.80;59.00;;;;;;5031696;28;20340;-81
2022/09/03 05:01:20;;;;;;;1.80;1.10;;;19.80;59.20;;;;;;5032047;28;20022;-79
2022/09/03 05:03:46;;;;;;;1.27;0.82;;;19.80;59.90;;;;;;5031984;28;20022;-79
2022/09/03 05:06:12;;;;;;;1.42;0.80;;;19.80;59.10;;;;;;5031528;28;20045;-81
2022/09/03 05:08:39;;;;;;;1.67;0.90;;;19.80;59.10;;;;;;5029776;28;20032;-79
2022/09/03 05:11:06;;;;;;;2.28;1.00;;;19.80;58.80;;;;;;5047813;28;20017;-81
2022/09/03 05:13:32;;;;;;;2.38;1.13;;;19.90;58.80;;;;;;5031452;28;20032;-81
2022/09/03 05:16:06;;;;;;;2.53;1.05;;;19.80;58.30;;;;;;5030439;28;20041;-83
2022/09/03 05:18:32;;;;;;;2.58;1.00;;;19.90;58.10;;;;;;5030745;28;20141;-82
2022/09/03 05:20:59;;;;;;;2.00;1.00;;;19.80;57.90;;;;;;5029311;28;20487;-83
2022/09/03 05:23:26;;;;;;;3.35;1.10;;;19.80;57.90;;;;;;5046188;28;20032;-83
2022/09/03 05:26:00;;;;;;;2.15;1.02;;;19.80;58.10;;;;;;5029481;28;20022;-83
2022/09/03 05:28:28;;;;;;;1.85;1.00;;;19.80;58.90;;;;;;5028989;28;20821;-82
2022/09/03 05:31:02;;;;;;;2.35;1.00;;;19.80;58.70;;;;;;5028888;28;20014;-84
2022/09/03 05:33:28;;;;;;;1.35;0.90;;;19.80;58.70;;;;;;5046442;28;20049;-82
2022/09/03 05:36:04;;;;;;;4.95;1.30;;;19.80;59.00;;;;;;5046205;28;20420;-83
2022/09/03 05:38:30;;;;;;;2.65;1.02;;;19.80;59.10;;;;;;5028779;28;20384;-83
2022/09/03 05:41:07;;;;;;;2.05;1.00;;;19.80;58.70;;;;;;5031005;28;20027;-83
2022/09/03 05:43:33;;;;;;;2.65;1.10;;;19.80;59.10;;;;;;5030957;28;20026;-84
2022/09/03 05:46:07;;;;;;;1.38;0.90;;;19.80;59.20;;;;;;5036464;28;20048;-84
2022/09/03 05:48:35;;;;;;;3.60;1.05;;;19.80;58.80;;;;;;5034967;28;20435;-84
2022/09/03 05:51:03;;;;;;;2.63;1.10;;;19.80;59.50;;;;;;5034497;28;20088;-85
2022/09/03 05:53:30;;;;;;;2.38;1.10;;;19.80;59.00;;;;;;5033759;28;20037;-84
2022/09/03 05:56:05;;;;;;;3.25;1.17;;;19.80;58.50;;;;;;5032535;28;20847;-83
2022/09/03 05:58:32;;;;;;;2.00;1.00;;;19.80;58.40;;;;;;5030311;28;20040;-84
2022/09/03 06:00:58;;;;;;;3.88;1.17;;;19.80;58.90;;;;;;5031663;28;20029;-84
2022/09/03 06:03:23;;;;;;;3.28;1.23;;;19.80;58.40;;;;;;5032142;28;20404;-84
2022/09/03 06:05:53;;;;;;;2.78;1.02;;;19.80;58.30;;;;;;5031062;28;20041;-83
2022/09/03 06:08:20;;;;;;;2.65;1.10;;;19.80;58.60;;;;;;5030423;28;20022;-83
2022/09/03 06:10:46;;;;;;;3.17;1.15;;;19.90;58.70;;;;;;5030096;28;20021;-84
2022/09/03 06:13:11;;;;;;;2.17;1.08;;;19.80;58.50;;;;;;5029774;28;20017;-83
2022/09/03 06:15:37;;;;;;;3.47;1.00;;;19.80;58.50;;;;;;5046611;28;20494;-84
2022/09/03 06:18:03;;;;;;;2.80;1.20;;;19.90;58.50;;;;;;5029585;28;20029;-83
2022/09/03 06:20:29;;;;;;;2.13;1.10;;;19.90;58.70;;;;;;5034773;28;20036;-84
2022/09/03 06:22:55;;;;;;;1.55;1.00;;;19.90;58.60;;;;;;5033366;28;20480;-82
2022/09/03 06:25:20;;;;;;;2.20;1.10;;;19.90;58.60;;;;;;5033727;28;20018;-84
2022/09/03 06:27:46;;;;;;;3.58;1.20;;;19.90;58.60;;;;;;5032196;28;20040;-83
2022/09/03 06:30:12;;;;;;;2.03;1.10;;;19.90;58.60;;;;;;5033453;28;20028;-83
2022/09/03 06:32:51;;;;;;;4.47;1.10;;;20.00;58.70;;;;;;5032586;28;20027;-82
2022/09/03 06:35:17;;;;;;;1.98;0.98;;;20.00;58.80;;;;;;5034195;28;20029;-84
2022/09/03 06:37:43;;;;;;;1.40;0.90;;;20.00;58.50;;;;;;5032590;28;20124;-84
2022/09/03 06:40:12;;;;;;;5.32;1.38;;;20.00;58.60;;;;;;5033081;28;20045;-84
2022/09/03 06:42:41;;;;;;;1.60;1.10;;;20.10;58.70;;;;;;5033804;28;20033;-83
2022/09/03 06:45:08;;;;;;;2.20;1.20;;;20.10;58.70;;;;;;5032340;28;20805;-84
2022/09/03 06:47:33;;;;;;;3.20;1.10;;;20.10;58.60;;;;;;5032085;28;20030;-82
2022/09/03 06:50:00;;;;;;;3.33;1.15;;;20.20;58.30;;;;;;5031843;28;20021;-84
2022/09/03 06:52:26;;;;;;;3.65;1.13;;;20.20;58.40;;;;;;5033719;28;20155;-81
2022/09/03 06:54:52;;;;;;;3.05;1.05;;;20.20;58.40;;;;;;5034141;28;20061;-83
2022/09/03 06:57:17;;;;;;;2.22;1.10;;;20.30;58.20;;;;;;5030752;28;20034;-82
2022/09/03 06:59:43;;;;;;;2.03;1.10;;;20.30;57.90;;;;;;5034478;28;20038;-81
2022/09/03 07:02:09;;;;;;;2.85;1.00;;;20.30;58.00;;;;;;5033399;28;20534;-82
2022/09/03 07:04:35;;;;;;;3.53;1.40;;;20.30;58.10;;;;;;5031790;28;20026;-82
2022/09/03 07:07:01;;;;;;;2.38;1.00;;;20.30;58.00;;;;;;5033095;28;20152;-82
2022/09/03 07:09:27;;;;;;;2.20;1.00;;;20.40;58.10;;;;;;5033142;28;20021;-81
2022/09/03 07:11:53;;;;;;;4.32;1.20;;;20.40;57.80;;;;;;5032310;28;20081;-82
2022/09/03 07:14:19;;;;;;;3.30;1.08;;;20.40;57.80;;;;;;5032977;28;20037;-82
2022/09/03 07:16:46;;;;;;;2.97;1.20;;;20.40;57.90;;;;;;5035546;28;20025;-83
2022/09/03 07:19:12;;;;;;;3.30;1.20;;;20.50;57.80;;;;;;5035645;28;20085;-83
2022/09/03 07:21:40;;;;;;;2.72;1.20;;;20.50;57.80;;;;;;5034920;28;20061;-81
2022/09/03 07:24:07;;;;;;;1.77;1.15;;;20.60;57.70;;;;;;5037749;28;20026;-83
2022/09/03 07:26:38;;;;;;;2.22;1.17;;;20.50;57.60;;;;;;5037818;28;20226;-83
2022/09/03 07:29:06;;;;;;;;;;;20.60;57.50;;;;;;5035633;28;20026;-82
2022/09/03 07:31:35;;;;;;;2.25;1.02;;;20.60;57.40;;;;;;5033651;28;19905;-83
2022/09/03 07:34:05;;;;;;;4.28;1.17;;;20.60;57.20;;;;;;5031634;28;20103;-84
2022/09/03 07:36:34;;;;;;;3.10;1.08;;;20.40;57.70;;;;;;5030754;28;20030;-83
2022/09/03 07:39:00;;;;;;;5.43;1.10;;;20.20;58.50;;;;;;5029725;28;20112;-83
2022/09/03 07:41:26;;;;;;;4.50;1.10;;;20.10;58.20;;;;;;5030283;28;20124;-82
2022/09/03 07:43:52;;;;;;;2.33;1.30;;;20.00;57.90;;;;;;5030269;28;20033;-83
2022/09/03 07:46:22;;;;;;;3.22;1.17;;;20.00;57.70;;;;;;5032139;28;20026;-84
2022/09/03 07:49:00;;;;;;;3.75;1.30;;;20.10;57.20;;;;;;5033130;28;20056;-81
2022/09/03 07:51:28;;;;;;;16.70;2.22;;;20.30;57.00;;;;;;5035963;28;20026;-82
2022/09/03 07:53:56;;;;;;;69.78;5.10;;;20.50;56.70;;;;;;5032251;28;20026;-82
2022/09/03 07:56:23;;;;;;;33.53;3.95;;;20.50;56.20;;;;;;5025060;28;20116;-81
2022/09/03 07:58:49;;;;;;;46.20;4.68;;;20.60;55.90;;;;;;5044002;28;20873;-82
2022/09/03 08:01:17;;;;;;;32.40;3.78;;;20.80;56.10;;;;;;5031095;28;20026;-81
2022/09/03 08:03:44;;;;;;;25.20;4.15;;;20.90;55.90;;;;;;5028758;28;20112;-82
2022/09/03 08:06:11;;;;;;;24.08;2.97;;;21.10;55.50;;;;;;5042455;28;20044;-83
2022/09/03 08:08:37;;;;;;;17.80;2.15;;;21.10;55.30;;;;;;5042577;28;20032;-85
2022/09/03 08:11:09;;;;;;;13.35;2.33;;;21.20;55.20;;;;;;5041986;28;20036;-83
2022/09/03 08:13:42;;;;;;;9.57;1.92;;;21.30;55.00;;;;;;5041424;28;20060;-83
2022/09/03 08:16:09;;;;;;;7.60;1.63;;;21.40;54.70;;;;;;5038417;28;20033;-83
2022/09/03 08:18:38;;;;;;;7.57;1.95;;;21.50;54.40;;;;;;5056012;28;20658;-83
2022/09/03 08:21:09;;;;;;;10.55;1.70;;;21.70;54.00;;;;;;5040445;28;20407;-82
2022/09/03 08:23:39;;;;;;;7.50;1.50;;;21.70;54.30;;;;;;5040399;28;20456;-82
2022/09/03 08:26:05;;;;;;;7.05;1.70;;;21.70;53.90;;;;;;5038387;28;20052;-81
2022/09/03 08:28:33;;;;;;;5.95;1.55;;;21.80;53.70;;;;;;5034547;28;20716;-81
2022/09/03 08:31:05;;;;;;;4.90;1.25;;;21.90;53.70;;;;;;5031492;28;20372;-81
2022/09/03 08:33:37;;;;;;;3.00;1.02;;;21.90;53.90;;;;;;5030080;28;20029;-81
2022/09/03 08:36:21;;;;;;;3.33;1.42;;;21.90;53.10;;;;;;5028662;28;20554;-81
2022/09/03 08:38:53;;;;;;;3.45;1.15;;;21.90;53.30;;;;;;5029503;28;20472;-82
2022/09/03 08:41:39;;;;;;;4.68;1.30;;;21.90;53.20;;;;;;5029120;28;20480;-81
2022/09/03 08:44:18;;;;;;;1.85;1.20;;;21.90;53.00;;;;;;5029612;28;20053;-81
2022/09/03 08:47:00;;;;;;;2.83;1.20;;;21.90;53.30;;;;;;5027881;28;20483;-85
2022/09/03 08:49:38;;;;;;;2.17;1.15;;;21.90;53.00;;;;;;5026275;28;20033;-84
2022/09/03 08:52:17;;;;;;;2.20;1.20;;;21.90;53.10;;;;;;5025769;28;20022;-84
2022/09/03 08:54:43;;;;;;;2.10;1.13;;;21.90;53.10;;;;;;5027658;28;20136;-81
2022/09/03 08:57:09;;;;;;;5.15;1.73;;;21.90;53.10;;;;;;5029533;28;20108;-81
2022/09/03 08:59:35;;;;;;;3.20;1.10;;;22.00;53.40;;;;;;5027786;28;20048;-83
2022/09/03 09:02:24;;;;;;;2.95;1.40;;;22.00;53.50;;;;;;5027889;28;20029;-81
2022/09/03 09:05:18;;;;;;;3.80;1.40;;;22.00;53.50;;;;;;4991566;28;20120;-82
2022/09/03 09:07:56;;;;;;;2.17;1.20;;;22.10;53.50;;;;;;5026618;28;20484;-84
2022/09/03 09:10:39;;;;;;;2.78;1.20;;;22.10;53.00;;;;;;5029137;28;20077;-82
2022/09/03 09:13:28;;;;;;;6.43;1.45;;;22.10;53.00;;;;;;5030262;28;20029;-81
2022/09/03 09:16:05;;;;;;;2.72;1.10;;;22.10;52.90;;;;;;5029234;28;20084;-81
2022/09/03 09:18:45;;;;;;;3.25;1.35;;;22.10;53.00;;;;;;5028439;28;20034;-80
2022/09/03 09:21:26;;;;;;;2.63;1.40;;;22.20;52.70;;;;;;5028531;28;20488;-81
2022/09/03 09:23:53;;;;;;;3.97;1.33;;;22.20;52.70;;;;;;5028263;28;20477;-81
2022/09/03 09:26:22;;;;;;;4.72;1.40;;;22.20;52.20;;;;;;5026649;28;20093;-81
2022/09/03 09:29:06;;;;;;;2.90;1.60;;;22.20;52.00;;;;;;5028572;28;20022;-81
2022/09/03 09:31:31;;;;;;;2.42;1.13;;;22.20;52.50;;;;;;5028339;28;20029;-81
2022/09/03 09:34:05;;;;;;;2.50;1.30;;;22.20;52.70;;;;;;5029305;28;20025;-81
2022/09/03 09:36:42;;;;;;;6.30;1.38;;;22.20;52.40;;;;;;5028070;28;20033;-80
2022/09/03 09:39:10;;;;;;;4.10;1.30;;;22.20;52.60;;;;;;5027955;28;20029;-80
2022/09/03 09:41:35;;;;;;;3.65;1.20;;;22.20;52.50;;;;;;5028121;28;20080;-80
2022/09/03 09:44:04;;;;;;;4.72;1.23;;;22.20;52.60;;;;;;5026423;28;20033;-80
2022/09/03 09:46:40;;;;;;;3.85;1.60;;;22.20;52.90;;;;;;5027378;28;20369;-81
2022/09/03 09:49:42;;;;;;;3.83;1.52;;;22.10;52.20;;;;;;5027432;28;20071;-80
2022/09/03 09:52:14;;;;;;;6.40;1.33;;;22.20;52.40;;;;;;5028004;28;20017;-81
2022/09/03 09:54:41;;;;;;;3.88;1.25;;;22.20;52.30;;;;;;5029743;28;20384;-81
2022/09/03 09:57:17;;;;;;;2.72;1.23;;;22.20;52.40;;;;;;5031847;28;20029;-81
2022/09/03 09:59:44;;;;;;;2.45;1.05;;;22.20;52.30;;;;;;5031346;28;20569;-81
2022/09/03 10:02:10;;;;;;;4.68;1.33;;;22.20;52.60;;;;;;5030768;28;20018;-81
2022/09/03 10:04:36;;;;;;;2.08;1.23;;;22.30;52.60;;;;;;5031124;28;20380;-82
2022/09/03 10:07:21;;;;;;;4.22;1.50;;;22.40;52.50;;;;;;5031692;28;20018;-83
2022/09/03 10:10:01;;;;;;;4.95;1.45;;;22.40;52.00;;;;;;5030351;28;20021;-84
2022/09/03 10:12:43;;;;;;;5.85;1.40;;;22.40;51.70;;;;;;5031995;28;20422;-80
2022/09/03 10:15:49;;;;;;;7.25;1.35;;;22.40;52.10;;;;;;5039826;28;20026;-85
2022/09/03 10:18:39;;;;;;;3.85;1.48;;;22.30;51.90;;;;;;5047255;28;20083;-83
2022/09/03 10:21:50;;;;;;;5.40;1.42;;;22.30;52.00;;;;;;5041957;28;20053;-84
2022/09/03 10:24:45;;;;;;;7.97;1.42;;;22.30;52.20;;;;;;5018657;28;20116;-82
2022/09/03 10:27:15;;;;;;;5.25;1.50;;;22.40;52.20;;;;;;5035132;28;20037;-84
2022/09/03 10:29:40;;;;;;;6.32;1.35;;;22.40;50.90;;;;;;5054081;28;20361;-84
2022/09/03 10:32:22;;;;;;;5.47;1.50;;;22.40;50.50;;;;;;5040081;28;20036;-81
2022/09/03 10:35:09;;;;;;;3.35;1.10;;;22.40;50.70;;;;;;5036576;28;20025;-82
2022/09/03 10:37:49;;;;;;;3.65;1.40;;;22.50;50.20;;;;;;5038435;28;20030;-79
2022/09/03 10:40:41;;;;;;;2.53;1.25;;;22.40;50.50;;;;;;5031847;28;20770;-82
2022/09/03 10:43:32;;;;;;;2.78;1.15;;;22.40;50.90;;;;;;5031727;28;20092;-81
2022/09/03 10:46:18;;;;;;;3.72;1.25;;;22.40;51.00;;;;;;5033364;28;20150;-81
2022/09/03 10:49:12;;;;;;;3.58;1.13;;;22.50;51.20;;;;;;5037996;28;20083;-83
2022/09/03 10:51:41;;;;;;;2.03;1.20;;;22.50;51.40;;;;;;5032388;28;20024;-80
2022/09/03 10:54:27;;;;;;;3.65;1.50;;;22.50;51.30;;;;;;5030552;28;20036;-80
2022/09/03 10:57:20;;;;;;;4.95;1.33;;;22.50;51.40;;;;;;5012271;28;20033;-81
2022/09/03 10:59:58;;;;;;;4.72;1.40;;;22.50;51.60;;;;;;5030706;28;20024;-81
2022/09/03 11:02:57;;;;;;;5.35;1.50;;;22.40;51.80;;;;;;5034743;28;20016;-80
2022/09/03 11:05:30;;;;;;;4.10;1.33;;;22.40;51.90;;;;;;5022683;28;20388;-83
2022/09/03 11:08:12;;;;;;;7.50;1.52;;;22.40;52.00;;;;;;5030910;28;20238;-79
2022/09/03 11:10:48;;;;;;;4.18;1.40;;;22.40;52.10;;;;;;5029441;28;20083;-82
2022/09/03 11:13:24;;;;;;;4.55;1.27;;;22.40;52.00;;;;;;5031610;28;20017;-81
2022/09/03 11:16:00;;;;;;;6.10;1.42;;;22.40;52.00;;;;;;5031480;28;20034;-81
2022/09/03 11:18:39;;;;;;;9.73;1.70;;;22.40;52.10;;;;;;5031327;28;20060;-80
2022/09/03 11:21:11;;;;;;;6.13;1.40;;;22.40;52.20;;;;;;5031616;28;20084;-80
2022/09/03 11:23:39;;;;;;;;;;;22.50;52.00;;;;;;5030538;28;20029;-80
2022/09/03 11:26:11;;;;;;;5.65;1.45;;;22.50;51.50;;;;;;5030198;28;19952;-80
2022/09/03 11:28:58;;;;;;;4.75;1.50;;;22.50;51.50;;;;;;5029473;28;20040;-80
2022/09/03 11:32:00;;;;;;;7.13;1.45;;;22.50;51.70;;;;;;5041034;28;20029;-81
2022/09/03 11:34:30;;;;;;;6.47;1.45;;;22.50;51.80;;;;;;4974019;28;20108;-80
2022/09/03 11:37:15;;;;;;;5.63;1.50;;;22.50;51.80;;;;;;5006783;28;20121;-81
2022/09/03 11:39:41;;;;;;;2.60;1.27;;;22.50;51.60;;;;;;5010677;28;20018;-80
2022/09/03 11:42:20;;;;;;;5.68;1.42;;;22.50;51.60;;;;;;5016200;28;20380;-82
2022/09/03 11:44:50;;;;;;;3.30;1.25;;;22.50;51.40;;;;;;5030852;28;20021;-80
2022/09/03 11:47:22;;;;;;;4.63;1.30;;;22.50;51.30;;;;;;5029360;28;20741;-83
2022/09/03 11:49:49;;;;;;;3.13;1.27;;;22.50;51.20;;;;;;5031063;28;20032;-80
2022/09/03 11:52:26;;;;;;;6.90;1.30;;;22.50;51.30;;;;;;5030525;28;20021;-81
2022/09/03 11:54:52;;;;;;;4.22;1.35;;;22.60;52.00;;;;;;5032025;28;20029;-80
2022/09/03 11:57:32;;;;;;;5.35;1.38;;;22.80;49.80;;;;;;5031755;28;20014;-81
2022/09/03 12:00:24;;;;;;;4.22;1.48;;;23.10;48.70;;;;;;5032296;28;20021;-82
2022/09/03 12:02:56;;;;;;;2.75;1.40;;;23.10;48.90;;;;;;5039349;28;20026;-80
2022/09/03 12:05:44;;;;;;;3.25;1.23;;;23.00;49.30;;;;;;5030492;28;20017;-80
2022/09/03 12:08:38;;;;;;;2.60;1.42;;;22.80;49.80;;;;;;5028501;28;20022;-82
2022/09/03 12:11:45;;;;;;;4.53;1.40;;;22.70;50.20;;;;;;5025070;28;20116;-81
2022/09/03 12:14:21;;;;;;;4.13;1.20;;;22.70;50.50;;;;;;5014625;28;20025;-81
2022/09/03 12:17:10;;;;;;;6.15;1.30;;;22.60;50.50;;;;;;5029381;28;20030;-80
2022/09/03 12:19:53;;;;;;;4.55;1.50;;;22.70;50.60;;;;;;5041224;28;20040;-79
2022/09/03 12:22:21;;;;;;;2.67;1.25;;;22.70;50.50;;;;;;5026393;28;20199;-80
2022/09/03 12:24:49;;;;;;;3.10;1.40;;;22.60;50.60;;;;;;5027963;28;20154;-81
2022/09/03 12:27:23;;;;;;;4.25;1.30;;;22.60;50.70;;;;;;5031443;28;20089;-83
2022/09/03 12:30:01;;;;;;;3.75;1.30;;;22.70;50.80;;;;;;5027756;28;20104;-80
2022/09/03 12:32:35;;;;;;;3.97;1.10;;;22.70;50.60;;;;;;5013655;28;20148;-80
2022/09/03 12:35:11;;;;;;;5.55;1.50;;;22.60;50.80;;;;;;5029572;28;20025;-82
2022/09/03 12:37:37;;;;;;;4.68;1.52;;;22.60;50.90;;;;;;5029972;28;20614;-80
2022/09/03 12:40:02;;;;;;;4.13;1.20;;;22.60;50.70;;;;;;5029863;28;20040;-80
2022/09/03 12:42:30;;;;;;;3.28;1.35;;;22.60;51.00;;;;;;5030733;28;20033;-80
2022/09/03 12:45:05;;;;;;;3.30;1.38;;;22.50;51.10;;;;;;5062995;28;20040;-82
2022/09/03 12:47:38;;;;;;;4.80;1.55;;;22.50;51.10;;;;;;5032867;28;20126;-81
2022/09/03 12:50:16;;;;;;;4.03;1.20;;;22.50;50.90;;;;;;5033563;28;20397;-81
2022/09/03 12:52:47;;;;;;;3.15;1.20;;;22.40;51.10;;;;;;5033716;28;20028;-79
2022/09/03 12:55:40;;;;;;;5.10;1.40;;;22.40;51.30;;;;;;5030289;28;20083;-79
2022/09/03 12:58:12;;;;;;;2.72;1.33;;;22.30;51.50;;;;;;5029859;28;20021;-82
2022/09/03 13:00:44;;;;;;;4.07;1.20;;;22.30;51.40;;;;;;5028108;28;20029;-80
2022/09/03 13:03:42;;;;;;;4.00;1.52;;;22.20;51.50;;;;;;5028353;28;20029;-80
2022/09/03 13:06:14;;;;;;;4.17;1.40;;;22.20;51.70;;;;;;5028496;28;20391;-80
2022/09/03 13:08:48;;;;;;;5.47;1.42;;;22.20;51.50;;;;;;5027839;28;20411;-80
2022/09/03 13:11:17;;;;;;;4.78;1.40;;;22.20;51.30;;;;;;5042249;28;20468;-79
2022/09/03 13:13:59;;;;;;;2.92;1.20;;;22.20;51.30;;;;;;5013203;28;20546;-80
2022/09/03 13:16:43;;;;;;;1.90;1.33;;;22.30;51.30;;;;;;5028507;28;20036;-78
2022/09/03 13:19:29;;;;;;;5.22;1.80;;;22.30;51.30;;;;;;5026948;28;20144;-79
2022/09/03 13:22:01;;;;;;;3.20;1.35;;;22.20;51.30;;;;;;5031708;28;20017;-80